createdAt,value
2023-09-23T00:02:07.896Z,99773.78
2023-09-23T00:07:10.831Z,99768.50
2023-09-23T00:12:13.902Z,99763.31
2023-09-23T00:17:16.491Z,99779.94
2023-09-23T00:22:20.094Z,99782.00
2023-09-23T00:27:23.250Z,99784.38
2023-09-23T00:32:25.826Z,99789.44
2023-09-23T00:37:28.839Z,99790.78
2023-09-23T00:42:33.947Z,99799.69
2023-09-23T00:47:37.472Z,99814.63
2023-09-23T00:52:40.480Z,99816.97
2023-09-23T00:57:43.383Z,99825.97
2023-09-23T01:02:49.010Z,99813.56
2023-09-23T01:07:52.673Z,99806.59
2023-09-23T01:12:55.241Z,99811.09
2023-09-23T01:18:09.118Z,99809.66
2023-09-23T01:23:18.351Z,99821.63
2023-09-23T01:28:21.390Z,99813.56
2023-09-23T01:33:25.644Z,99830.72
2023-09-23T01:38:28.548Z,99818.81
2023-09-23T01:43:31.202Z,99831.38
2023-09-23T01:48:34.590Z,99851.56
2023-09-23T01:53:37.438Z,99836.63
2023-09-23T01:58:39.975Z,99825.97
2023-09-23T02:03:43.721Z,99832.47
2023-09-23T02:08:47.228Z,99839.44
2023-09-23T02:13:51.314Z,99844.16
2023-09-23T02:18:54.764Z,99855.81
2023-09-23T02:23:58.088Z,99848.72
2023-09-23T02:29:00.796Z,99834.50
2023-09-23T02:34:03.989Z,99834.81
2023-09-23T02:39:07.679Z,99830.28
2023-09-23T02:44:10.307Z,99823.22
2023-09-23T02:49:13.486Z,99823.03
2023-09-23T02:54:19.271Z,99826.94
2023-09-23T02:59:27.986Z,99836.47
2023-09-23T03:04:33.886Z,99841.28
2023-09-23T03:09:45.937Z,99831.28
2023-09-23T03:14:53.138Z,99851.13
2023-09-23T03:19:56.185Z,99872.63
2023-09-23T03:24:59.314Z,99868.44
2023-09-23T03:30:04.722Z,99849.69
2023-09-23T03:35:15.540Z,99861.31
2023-09-23T03:40:26.810Z,99848.72
2023-09-23T03:45:34.833Z,99861.16
2023-09-23T03:50:38.013Z,99853.75
2023-09-23T03:55:42.169Z,99855.19
2023-09-23T04:00:48.833Z,99828.69
2023-09-23T04:05:59.264Z,99845.31
2023-09-23T04:11:07.145Z,99873.25
2023-09-23T04:16:10.747Z,99891.19
2023-09-23T04:21:15.015Z,99895.06
2023-09-23T04:26:22.904Z,99893.41
2023-09-23T04:31:26.592Z,99889.34
2023-09-23T04:36:31.280Z,99916.00
2023-09-23T04:41:34.961Z,99929.72
2023-09-23T04:46:39.055Z,99934.78
2023-09-23T04:51:44.366Z,99928.78
2023-09-23T04:56:49.070Z,99920.88
2023-09-23T05:01:52.243Z,99918.00
2023-09-23T05:06:54.845Z,99955.13
2023-09-23T05:11:57.592Z,99958.50
2023-09-23T05:17:00.021Z,99980.38
2023-09-23T05:22:04.650Z,99988.63
2023-09-23T05:27:07.958Z,100013.72
2023-09-23T05:32:12.329Z,100024.25
2023-09-23T05:37:18.175Z,100024.47
2023-09-23T05:48:58.761Z,100032.25
2023-09-23T05:54:03.055Z,100036.72
2023-09-23T05:59:09.570Z,100031.44
2023-09-23T06:04:12.039Z,100030.16
2023-09-23T06:09:16.733Z,100023.19
2023-09-23T06:14:19.300Z,100023.50
2023-09-23T06:19:22.058Z,100014.28
2023-09-23T06:24:24.647Z,100010.22
2023-09-23T06:29:28.497Z,100026.19
2023-09-23T06:34:32.193Z,100037.91
2023-09-23T06:39:34.945Z,100048.28
2023-09-23T06:44:40.282Z,100060.34
2023-09-23T06:49:43.958Z,100096.88
2023-09-23T06:54:48.705Z,100095.75
2023-09-23T06:59:53.284Z,100091.22
2023-09-23T07:04:55.933Z,100073.78
2023-09-23T07:09:58.831Z,100066.38
2023-09-23T07:15:02.322Z,100080.28
2023-09-23T07:20:06.459Z,100073.28
2023-09-23T07:25:10.266Z,100087.97
2023-09-23T07:30:15.061Z,100087.97
2023-09-23T07:35:21.548Z,100115.25
2023-09-23T07:40:24.488Z,100133.19
2023-09-23T07:45:27.171Z,100133.38
2023-09-23T07:50:30.770Z,100147.97
2023-09-23T07:55:33.381Z,100176.81
2023-09-23T08:00:36.558Z,100222.50
2023-09-23T08:05:39.655Z,100193.34
2023-09-23T08:10:42.546Z,100156.41
2023-09-23T08:15:47.084Z,100119.94
2023-09-23T08:20:49.957Z,100101.38
2023-09-23T08:25:53.768Z,100144.56
2023-09-23T08:30:56.587Z,100151.25
2023-09-23T08:35:59.443Z,100150.81
2023-09-23T08:41:05.297Z,100161.50
2023-09-23T08:46:09.238Z,100144.03
2023-09-23T08:51:13.670Z,100151.03
2023-09-23T08:56:16.800Z,100172.75
2023-09-23T09:01:19.762Z,100152.13
2023-09-23T09:06:29.303Z,100164.34
2023-09-23T09:11:33.358Z,100174.09
2023-09-23T09:16:36.665Z,100173.31
2023-09-23T09:21:39.876Z,100183.41
2023-09-23T09:26:42.647Z,100198.53
2023-09-23T09:31:51.314Z,100194.38
2023-09-23T09:36:59.064Z,100207.28
2023-09-23T09:42:06.993Z,100218.78
2023-09-23T09:47:12.108Z,100221.88
2023-09-23T09:52:16.704Z,100220.91
2023-09-23T09:57:19.370Z,100223.34
2023-09-23T10:02:25.671Z,100194.59
2023-09-23T10:07:56.033Z,100231.81
2023-09-23T10:13:19.928Z,100229.31
2023-09-23T10:18:22.558Z,100230.53
2023-09-23T10:23:25.438Z,100228.00
2023-09-23T10:28:32.276Z,100230.91
2023-09-23T10:33:37.819Z,100236.56
2023-09-23T10:38:41.388Z,100224.25
2023-09-23T10:43:45.214Z,100212.72
2023-09-23T10:48:48.293Z,100225.69
2023-09-23T10:53:51.385Z,100217.53
2023-09-23T10:58:55.146Z,100209.56
2023-09-23T11:04:01.754Z,100218.31
2023-09-23T11:09:08.021Z,100228.13
2023-09-23T11:14:15.060Z,100221.22
2023-09-23T11:19:19.062Z,100228.09
2023-09-23T11:24:22.362Z,100233.06
2023-09-23T11:29:26.039Z,100214.19
2023-09-23T11:34:32.065Z,100215.41
2023-09-23T11:39:36.918Z,100206.75
2023-09-23T11:44:40.157Z,100220.81
2023-09-23T11:49:42.832Z,100211.19
2023-09-23T11:54:45.578Z,100213.00
2023-09-23T11:59:48.527Z,100208.22
2023-09-23T12:04:52.321Z,100220.44
2023-09-23T12:09:55.443Z,100226.59
2023-09-23T12:14:58.899Z,100256.03
2023-09-23T12:20:03.824Z,100254.28
2023-09-23T12:25:07.686Z,100267.44
2023-09-23T12:30:11.804Z,100267.00
2023-09-23T12:35:15.283Z,100261.94
2023-09-23T12:40:18.408Z,100271.09
2023-09-23T12:45:24.016Z,100274.91
2023-09-23T12:50:27.542Z,100261.06
2023-09-23T12:55:30.604Z,100271.31
2023-09-23T13:00:33.513Z,100271.75
2023-09-23T13:05:37.057Z,100285.69
2023-09-23T13:10:39.520Z,100290.78
2023-09-23T13:15:42.284Z,100290.34
2023-09-23T13:20:46.082Z,100289.78
2023-09-23T13:25:49.549Z,100280.53
2023-09-23T13:30:52.654Z,100281.91
2023-09-23T13:35:55.133Z,100285.28
2023-09-23T13:40:59.572Z,100283.66
2023-09-23T13:46:05.275Z,100285.06
2023-09-23T13:51:10.503Z,100273.53
2023-09-23T13:56:13.625Z,100279.88
2023-09-23T14:01:16.529Z,100304.22
2023-09-23T14:06:19.237Z,100302.72
2023-09-23T14:11:22.546Z,100306.34
2023-09-23T14:16:25.563Z,100302.84
2023-09-23T14:21:28.930Z,100301.59
2023-09-23T14:26:33.789Z,100312.75
2023-09-23T14:31:36.714Z,100294.84
2023-09-23T14:36:39.445Z,100301.41
2023-09-23T14:41:42.158Z,100305.78
2023-09-23T14:46:47.987Z,100312.91
2023-09-23T14:51:51.020Z,100313.25
2023-09-23T14:56:54.179Z,100333.09
2023-09-23T15:01:56.725Z,100351.81
2023-09-23T15:07:01.332Z,100346.84
2023-09-23T15:12:06.553Z,100360.63
2023-09-23T15:17:09.624Z,100360.06
2023-09-23T15:22:12.603Z,100393.00
2023-09-23T15:27:15.903Z,100356.22
2023-09-23T15:32:22.525Z,100377.28
2023-09-23T15:37:25.927Z,100373.69
2023-09-23T15:42:29.877Z,100383.41
2023-09-23T15:47:33.490Z,100408.59
2023-09-23T15:52:36.862Z,100398.44
2023-09-23T15:57:40.639Z,100422.09
2023-09-23T16:02:43.522Z,100452.03
2023-09-23T16:07:46.181Z,100458.63
2023-09-23T16:12:49.522Z,100461.50
2023-09-23T16:17:55.661Z,100473.56
2023-09-23T16:22:58.656Z,100479.44
2023-09-23T16:28:01.613Z,100477.19
2023-09-23T16:33:04.930Z,100472.31
2023-09-23T16:38:08.676Z,100505.38
2023-09-23T16:43:12.686Z,100497.59
2023-09-23T16:48:15.980Z,100508.03
2023-09-23T16:53:19.078Z,100499.09
2023-09-23T16:58:21.743Z,100516.44
2023-09-23T17:03:25.549Z,100536.53
2023-09-23T17:08:29.439Z,100547.22
2023-09-23T17:13:32.578Z,100543.31
2023-09-23T17:18:36.362Z,100550.59
2023-09-23T17:23:39.451Z,100551.69
2023-09-23T17:28:42.316Z,100562.34
2023-09-23T17:33:45.183Z,100559.66
2023-09-23T17:38:48.897Z,100557.31
2023-09-23T17:43:51.993Z,100567.59
2023-09-23T17:48:55.131Z,100580.25
2023-09-23T17:53:57.890Z,100580.44
2023-09-23T17:59:03.307Z,100583.97
2023-09-23T18:04:08.591Z,100609.81
2023-09-23T18:09:14.670Z,100625.88
2023-09-23T18:14:20.396Z,100621.78
2023-09-23T18:19:25.261Z,100610.81
2023-09-23T18:24:28.930Z,100623.03
2023-09-23T18:29:33.637Z,100613.75
2023-09-23T18:34:37.528Z,100626.22
2023-09-23T18:39:43.082Z,100632.84
2023-09-23T18:44:46.026Z,100655.34
2023-09-23T18:49:49.273Z,100625.97
2023-09-23T18:54:52.499Z,100655.75
2023-09-23T18:59:56.429Z,100670.00
2023-09-23T19:04:59.416Z,100665.81
2023-09-23T19:10:32.325Z,100680.63
2023-09-23T19:15:36.209Z,100680.81
2023-09-23T19:20:39.018Z,100686.91
2023-09-23T19:25:42.960Z,100691.69
2023-09-23T19:30:46.351Z,100701.31
2023-09-23T19:35:50.785Z,100710.13
2023-09-23T19:40:54.307Z,100710.63
2023-09-23T19:45:57.624Z,100715.38
2023-09-23T19:51:00.778Z,100724.84
2023-09-23T19:56:03.097Z,100730.03
2023-09-23T20:01:06.407Z,100746.09
2023-09-23T20:06:10.695Z,100743.75
2023-09-23T20:11:20.747Z,100754.03
2023-09-23T20:16:23.675Z,100754.13
2023-09-23T20:21:26.617Z,100762.53
2023-09-23T20:26:29.609Z,100761.72
2023-09-23T20:31:32.671Z,100754.13
2023-09-23T20:36:36.492Z,100770.56
2023-09-23T20:41:40.348Z,100768.56
2023-09-23T20:46:44.566Z,100782.63
2023-09-23T20:51:47.582Z,100785.13
2023-09-23T20:56:50.282Z,100791.31
2023-09-23T21:01:53.154Z,100794.31
2023-09-23T21:06:55.783Z,100789.41
2023-09-23T21:11:58.940Z,100781.50
2023-09-23T21:17:03.578Z,100795.13
2023-09-23T21:22:07.348Z,100795.44
2023-09-23T21:27:10.599Z,100797.91
2023-09-23T21:32:13.795Z,100801.25
2023-09-23T21:37:17.751Z,100814.91
2023-09-23T21:42:20.592Z,100826.69
2023-09-23T21:47:23.431Z,100817.41
2023-09-23T21:52:26.452Z,100828.66
2023-09-23T21:57:29.983Z,100831.97
2023-09-23T22:02:36.588Z,100816.19
2023-09-23T22:07:39.336Z,100819.22
2023-09-23T22:12:41.934Z,100812.72
2023-09-23T22:17:44.819Z,100821.25
2023-09-23T22:22:50.036Z,100820.50
2023-09-23T22:27:56.355Z,100830.59
2023-09-23T22:33:00.747Z,100843.41
2023-09-23T22:38:04.608Z,100844.25
2023-09-23T22:43:07.381Z,100856.50
2023-09-23T22:48:11.864Z,100850.19
2023-09-23T22:53:19.437Z,100872.34
2023-09-23T22:58:22.889Z,100884.91
2023-09-23T23:03:25.759Z,100885.47
2023-09-23T23:08:30.288Z,100908.13
2023-09-23T23:13:33.395Z,100928.09
2023-09-23T23:18:36.167Z,100929.19
2023-09-23T23:23:38.803Z,100929.19
2023-09-23T23:28:41.267Z,100931.38
2023-09-23T23:33:45.880Z,100945.28
2023-09-23T23:38:48.741Z,100940.94
2023-09-23T23:43:51.354Z,100937.91
2023-09-23T23:48:53.869Z,100951.88
2023-09-23T23:53:57.222Z,100957.34
2023-09-23T23:59:02.457Z,100966.34
